Home > Products > Valid Products > TAF

000
FTUS45 KFGZ 310500
TAFPGA
TAF
KPGA 310527Z 3106/0106 VRB05KT P6SM BKN150=



000
FTUS45 KFGZ 310500
TAFINW
TAF
KINW 310527Z 3106/0106 VRB05KT P6SM SCT250
     FM311900 19015G25KT P6SM SCT080 BKN140 BKN200
     FM010200 VRB06KT P6SM SCT060 BKN140 BKN200=



000
FTUS45 KFGZ 310500
TAFFLG
TAF
KFLG 310527Z 3106/0106 VRB03KT P6SM SCT150 BKN200
     FM311800 19018G28KT P6SM SCT060 SCT200
     FM010200 19008G16KT P6SM BKN040 BKN100 BKN200=



000
FTUS45 KFGZ 302300
TAFPGA
TAF
KPGA 302320Z 3100/3124 VRB05KT P6SM FEW250
     FM312230 20010KT P6SM SCT250=



000
FTUS45 KFGZ 302300
TAFINW
TAF
KINW 302320Z 3100/3124 10006KT P6SM FEW250
     FM310200 VRB05KT P6SM FEW250
     FM311800 18015G24KT P6SM SCT080 SCT250=



000
FTUS45 KFGZ 302300
TAFFLG
TAF
KFLG 302320Z 3100/3124 10009KT P6SM FEW250
     FM310130 VRB03KT P6SM SCT200
     FM311800 20014G25KT P6SM FEW060 SCT250=



000
FTUS45 KFGZ 301700
TAFFLG
TAF
KFLG 301720Z 3018/3118 13009KT P6SM FEW250
     FM310200 VRB03KT P6SM SCT200=



000
FTUS45 KFGZ 301700
TAFINW
TAF
KINW 301720Z 3018/3118 10006KT P6SM FEW250
     FM310200 VRB05KT P6SM FEW250=



000
FTUS45 KFGZ 301700
TAFPGA
TAF
KPGA 301720Z 3018/3118 VRB04KT P6SM FEW250=



000
FTUS45 KFGZ 301100
TAFFLG
TAF
KFLG 301120Z 3012/3112 VRB03KT P6SM FEW250
     FM301800 13009KT P6SM FEW250
     FM310200 VRB03KT P6SM SCT200=



000
FTUS45 KFGZ 301100
TAFINW
TAF
KINW 301120Z 3012/3112 VRB05KT P6SM FEW250=



000
FTUS45 KFGZ 301100
TAFPGA
TAF
KPGA 301120Z 3012/3112 VRB04KT P6SM FEW250=



000
FTUS45 KFGZ 300500
TAFPGA
TAF
KPGA 300539Z 3006/3106 VRB04KT P6SM FEW250=



000
FTUS45 KFGZ 300500
TAFINW
TAF
KINW 300539Z 3006/3106 VRB04KT P6SM SKC
     FM301800 VRB05KT P6SM SKC
     FM310200 VRB03KT P6SM SCT250=



000
FTUS45 KFGZ 300500
TAFFLG
TAF
KFLG 300539Z 3006/3106 VRB05KT P6SM SKC
     FM301900 13008KT P6SM SKC
     FM310200 VRB03KT P6SM SCT060 BKN250=



000
FTUS45 KFGZ 292300
TAFINW
TAF
KINW 292320Z 3000/3024 VRB04KT P6SM SKC
     FM301800 13006KT P6SM SKC=



000
FTUS45 KFGZ 292300
TAFPGA
TAF
KPGA 292320Z 3000/3024 VRB04KT P6SM SKC=



000
FTUS45 KFGZ 292300
TAFFLG
TAF
KFLG 292320Z 3000/3024 VRB05KT P6SM SKC
     FM301900 15008KT P6SM SKC=



000
FTUS45 KFGZ 291700
TAFPGA
TAF
KPGA 291720Z 2918/3018 VRB04KT P6SM SKC=



000
FTUS45 KFGZ 291700
TAFINW
TAF
KINW 291720Z 2918/3018 VRB05KT P6SM SKC=



000
FTUS45 KFGZ 291700
TAFFLG
TAF
KFLG 291720Z 2918/3018 VRB05KT P6SM SKC=



000
FTUS45 KFGZ 291300 AAA
TAFINW
TAF AMD
KINW 291355Z 2914/3012 VRB04KT 4SM HZ SKC
     FM291530 VRB05KT P6SM SKC=



000
FTUS45 KFGZ 291100
TAFPGA
TAF
KPGA 291120Z 2912/3012 VRB04KT P6SM SKC=



000
FTUS45 KFGZ 291100
TAFFLG
TAF
KFLG 291120Z 2912/3012 VRB05KT P6SM SKC=



000
FTUS45 KFGZ 291100
TAFINW
TAF
KINW 291120Z 2912/3012 VRB04KT P6SM SKC=



000
FTUS45 KFGZ 290500
TAFFLG
TAF
KFLG 290525Z 2906/3006 VRB05KT P6SM SKC=



000
FTUS45 KFGZ 290500
TAFPGA
TAF
KPGA 290525Z 2906/3006 VRB04KT P6SM SKC=



000
FTUS45 KFGZ 290500
TAFINW
TAF
KINW 290525Z 2906/3006 VRB04KT P6SM SKC=



000
FTUS45 KFGZ 282300
TAFPGA
TAF
KPGA 282328Z 2900/2924 VRB04KT P6SM SKC=



000
FTUS45 KFGZ 282300
TAFFLG
TAF
KFLG 282328Z 2900/2924 VRB04KT P6SM SKC=



000
FTUS45 KFGZ 282300
TAFINW
TAF
KINW 282328Z 2900/2924 VRB04KT P6SM SKC=



000
FTUS45 KFGZ 281700
TAFPGA
TAF
KPGA 281720Z 2818/2918 VRB04KT P6SM SKC=



000
FTUS45 KFGZ 281700
TAFINW
TAF
KINW 281720Z 2818/2918 VRB05KT P6SM SKC=



000
FTUS45 KFGZ 281700
TAFFLG
TAF
KFLG 281720Z 2818/2918 VRB05KT P6SM SKC=



000
FTUS45 KFGZ 281100
TAFPGA
TAF
KPGA 281120Z 2812/2912 VRB04KT P6SM FEW200=



000
FTUS45 KFGZ 281100
TAFINW
TAF
KINW 281120Z 2812/2912 VRB05KT P6SM FEW200=



000
FTUS45 KFGZ 281100
TAFFLG
TAF
KFLG 281120Z 2812/2912 VRB05KT P6SM FEW200=



    US Dept of Commerce
    National Oceanic and Atmospheric Administration
    National Weather Service
    1325 East West Highway
    Silver Spring, MD 20910
    Page Author: NWS Internet Services Team
Disclaimer
Information Quality
Credits
Glossary
Privacy Policy
Freedom of Information Act (FOIA)
About Us
Career Opportunities